Terminal Aerodrome Forecast
Issued by NWS North Platte, NE

Current Version | Previous Version | Text Only | Print | Product List | Glossary On
Versions: 1 2 3 4 5 6 7 8 9 10 11 12 13 14 15 16 17 18 19 20 21 22 23 24 25 26 27 28 29 30 31 32
545
FTUS43 KLBF 251120
TAFLBF
TAF
KLBF 251120Z 2512/2612 01008KT 6SM BR BKN008 BKN015
     FM251600 01010KT 4SM BR VCSH OVC008
     FM252000 01009KT 5SM -SHRA BKN008 OVC015
     FM260400 33006KT P6SM BKN010=

USA.gov is the U.S. government's official web portal to all federal, state and local government web resources and services.